sensor_id;sensor_type;location;lat;lon;timestamp;pressure;altitude;pressure_sealevel;temperature;humidity
50368;BME280;36281;34.132;-118.018;2022-09-09T00:01:57;98811.53;;;38.63;24.70
50368;BME280;36281;34.132;-118.018;2022-09-09T00:04:28;98809.56;;;38.64;24.92
50368;BME280;36281;34.132;-118.018;2022-09-09T00:07:00;98811.53;;;38.63;25.04
50368;BME280;36281;34.132;-118.018;2022-09-09T00:09:31;98800.22;;;38.58;25.43
50368;BME280;36281;34.132;-118.018;2022-09-09T00:12:01;98794.66;;;38.58;24.88
50368;BME280;36281;34.132;-118.018;2022-09-09T00:14:35;98779.28;;;38.57;25.33
50368;BME280;36281;34.132;-118.018;2022-09-09T00:17:06;98775.81;;;38.52;25.31
50368;BME280;36281;34.132;-118.018;2022-09-09T00:19:38;98773.31;;;38.58;25.74
50368;BME280;36281;34.132;-118.018;2022-09-09T00:22:14;98762.63;;;38.60;25.10
50368;BME280;36281;34.132;-118.018;2022-09-09T00:24:43;98766.09;;;38.64;24.91
50368;BME280;36281;34.132;-118.018;2022-09-09T00:27:15;98765.22;;;38.67;25.05
50368;BME280;36281;34.132;-118.018;2022-09-09T00:29:47;98766.38;;;38.70;25.07
50368;BME280;36281;34.132;-118.018;2022-09-09T00:32:21;98754.16;;;38.67;24.99
50368;BME280;36281;34.132;-118.018;2022-09-09T00:34:51;98750.69;;;38.63;24.97
50368;BME280;36281;34.132;-118.018;2022-09-09T00:37:20;98748.00;;;38.60;25.22
50368;BME280;36281;34.132;-118.018;2022-09-09T00:39:50;98742.19;;;38.54;25.52
50368;BME280;36281;34.132;-118.018;2022-09-09T00:42:23;98744.66;;;38.48;25.50
50368;BME280;36281;34.132;-118.018;2022-09-09T00:44:55;98735.69;;;38.44;25.70
50368;BME280;36281;34.132;-118.018;2022-09-09T00:47:31;98725.19;;;38.36;25.65
50368;BME280;36281;34.132;-118.018;2022-09-09T00:50:03;98723.75;;;38.27;25.81
50368;BME280;36281;34.132;-118.018;2022-09-09T00:52:37;98728.28;;;38.18;26.16
50368;BME280;36281;34.132;-118.018;2022-09-09T00:55:09;98721.91;;;38.01;26.30
50368;BME280;36281;34.132;-118.018;2022-09-09T00:57:42;98715.81;;;37.90;26.88
50368;BME280;36281;34.132;-118.018;2022-09-09T01:00:22;98706.50;;;37.80;26.50
50368;BME280;36281;34.132;-118.018;2022-09-09T01:05:42;98694.81;;;37.49;27.03
50368;BME280;36281;34.132;-118.018;2022-09-09T01:08:14;98687.38;;;37.46;27.10
50368;BME280;36281;34.132;-118.018;2022-09-09T01:10:48;98674.91;;;37.34;27.51
50368;BME280;36281;34.132;-118.018;2022-09-09T01:13:19;98676.59;;;37.28;27.46
50368;BME280;36281;34.132;-118.018;2022-09-09T01:15:50;98664.59;;;37.15;27.90
50368;BME280;36281;34.132;-118.018;2022-09-09T01:18:26;98656.91;;;37.03;28.00
50368;BME280;36281;34.132;-118.018;2022-09-09T01:20:58;98659.84;;;36.92;28.21
50368;BME280;36281;34.132;-118.018;2022-09-09T01:23:37;98660.81;;;36.78;28.49
50368;BME280;36281;34.132;-118.018;2022-09-09T01:26:15;98647.97;;;36.68;28.32
50368;BME280;36281;34.132;-118.018;2022-09-09T01:28:46;98650.75;;;36.64;28.34
50368;BME280;36281;34.132;-118.018;2022-09-09T01:31:16;98653.94;;;36.63;28.49
50368;BME280;36281;34.132;-118.018;2022-09-09T01:33:46;98663.00;;;36.63;28.43
50368;BME280;36281;34.132;-118.018;2022-09-09T01:36:16;98657.13;;;36.61;27.69
50368;BME280;36281;34.132;-118.018;2022-09-09T01:38:50;98664.25;;;36.59;28.27
50368;BME280;36281;34.132;-118.018;2022-09-09T01:41:20;98671.44;;;36.53;28.57
50368;BME280;36281;34.132;-118.018;2022-09-09T01:43:48;98670.75;;;36.45;28.76
50368;BME280;36281;34.132;-118.018;2022-09-09T01:46:17;98676.78;;;36.33;28.45
50368;BME280;36281;34.132;-118.018;2022-09-09T01:48:46;98683.66;;;36.21;28.65
50368;BME280;36281;34.132;-118.018;2022-09-09T01:51:15;98687.34;;;36.07;28.87
50368;BME280;36281;34.132;-118.018;2022-09-09T01:53:43;98685.50;;;35.97;28.57
50368;BME280;36281;34.132;-118.018;2022-09-09T01:56:21;98683.19;;;35.88;28.69
50368;BME280;36281;34.132;-118.018;2022-09-09T01:58:59;98689.25;;;35.76;29.26
50368;BME280;36281;34.132;-118.018;2022-09-09T02:01:39;98690.59;;;35.61;29.01
50368;BME280;36281;34.132;-118.018;2022-09-09T02:04:12;98693.47;;;35.46;28.99
50368;BME280;36281;34.132;-118.018;2022-09-09T02:06:46;98695.91;;;35.34;28.90
50368;BME280;36281;34.132;-118.018;2022-09-09T02:09:16;98698.75;;;35.19;28.55
50368;BME280;36281;34.132;-118.018;2022-09-09T02:11:48;98707.91;;;35.06;29.14
50368;BME280;36281;34.132;-118.018;2022-09-09T02:14:19;98708.38;;;34.93;30.06
50368;BME280;36281;34.132;-118.018;2022-09-09T02:16:49;98710.41;;;34.82;29.83
50368;BME280;36281;34.132;-118.018;2022-09-09T02:19:20;98709.72;;;34.67;30.29
50368;BME280;36281;34.132;-118.018;2022-09-09T02:21:53;98712.53;;;34.53;30.69
50368;BME280;36281;34.132;-118.018;2022-09-09T02:24:22;98716.09;;;34.39;31.57
50368;BME280;36281;34.132;-118.018;2022-09-09T02:26:52;98715.78;;;34.16;31.02
50368;BME280;36281;34.132;-118.018;2022-09-09T02:29:23;98720.53;;;34.05;32.14
50368;BME280;36281;34.132;-118.018;2022-09-09T02:31:53;98713.84;;;33.91;32.71
50368;BME280;36281;34.132;-118.018;2022-09-09T02:34:25;98712.72;;;33.82;32.57
50368;BME280;36281;34.132;-118.018;2022-09-09T02:36:55;98716.28;;;33.68;33.29
50368;BME280;36281;34.132;-118.018;2022-09-09T02:39:25;98715.91;;;33.62;32.66
50368;BME280;36281;34.132;-118.018;2022-09-09T02:41:55;98710.41;;;33.52;34.00
50368;BME280;36281;34.132;-118.018;2022-09-09T02:44:24;98700.56;;;33.36;33.21
50368;BME280;36281;34.132;-118.018;2022-09-09T02:46:57;98703.72;;;33.28;33.82
50368;BME280;36281;34.132;-118.018;2022-09-09T02:49:32;98712.72;;;33.21;33.70
50368;BME280;36281;34.132;-118.018;2022-09-09T02:52:06;98708.41;;;33.06;34.17
50368;BME280;36281;34.132;-118.018;2022-09-09T02:54:35;98702.94;;;32.99;34.45
50368;BME280;36281;34.132;-118.018;2022-09-09T02:57:06;98700.16;;;32.95;33.74
50368;BME280;36281;34.132;-118.018;2022-09-09T02:59:37;98697.78;;;32.83;34.32
50368;BME280;36281;34.132;-118.018;2022-09-09T03:02:05;98707.53;;;32.70;35.67
50368;BME280;36281;34.132;-118.018;2022-09-09T03:04:33;98707.13;;;32.64;35.48
50368;BME280;36281;34.132;-118.018;2022-09-09T03:07:01;98707.91;;;32.61;35.00
50368;BME280;36281;34.132;-118.018;2022-09-09T03:09:31;98714.16;;;32.58;35.56
50368;BME280;36281;34.132;-118.018;2022-09-09T03:12:00;98718.81;;;32.50;35.49
50368;BME280;36281;34.132;-118.018;2022-09-09T03:14:30;98715.69;;;32.45;35.44
50368;BME280;36281;34.132;-118.018;2022-09-09T03:16:58;98719.19;;;32.38;35.80
50368;BME280;36281;34.132;-118.018;2022-09-09T03:19:28;98721.06;;;32.23;36.55
50368;BME280;36281;34.132;-118.018;2022-09-09T03:21:57;98721.81;;;32.20;36.73
50368;BME280;36281;34.132;-118.018;2022-09-09T03:24:25;98717.84;;;32.10;36.72
50368;BME280;36281;34.132;-118.018;2022-09-09T03:26:54;98718.59;;;32.04;36.72
50368;BME280;36281;34.132;-118.018;2022-09-09T03:29:23;98714.66;;;31.98;36.59
50368;BME280;36281;34.132;-118.018;2022-09-09T03:31:53;98727.91;;;31.92;36.96
50368;BME280;36281;34.132;-118.018;2022-09-09T03:34:21;98734.53;;;31.87;37.00
50368;BME280;36281;34.132;-118.018;2022-09-09T03:36:49;98739.56;;;31.82;36.66
50368;BME280;36281;34.132;-118.018;2022-09-09T03:39:18;98741.84;;;31.76;36.44
50368;BME280;36281;34.132;-118.018;2022-09-09T03:41:46;98739.50;;;31.75;36.54
50368;BME280;36281;34.132;-118.018;2022-09-09T03:44:15;98727.75;;;31.71;36.86
50368;BME280;36281;34.132;-118.018;2022-09-09T03:46:44;98738.25;;;31.65;36.76
50368;BME280;36281;34.132;-118.018;2022-09-09T03:49:13;98722.97;;;31.60;36.85
50368;BME280;36281;34.132;-118.018;2022-09-09T03:51:42;98725.31;;;31.62;37.83
50368;BME280;36281;34.132;-118.018;2022-09-09T03:54:11;98724.53;;;31.58;37.97
50368;BME280;36281;34.132;-118.018;2022-09-09T03:56:39;98727.59;;;31.53;37.91
50368;BME280;36281;34.132;-118.018;2022-09-09T03:59:09;98724.44;;;31.47;37.91
50368;BME280;36281;34.132;-118.018;2022-09-09T04:01:37;98722.47;;;31.44;38.86
50368;BME280;36281;34.132;-118.018;2022-09-09T04:04:05;98716.56;;;31.38;38.12
50368;BME280;36281;34.132;-118.018;2022-09-09T04:06:35;98714.97;;;31.34;38.60
50368;BME280;36281;34.132;-118.018;2022-09-09T04:09:03;98718.44;;;31.31;38.88
50368;BME280;36281;34.132;-118.018;2022-09-09T04:11:31;98713.63;;;31.21;39.55
50368;BME280;36281;34.132;-118.018;2022-09-09T04:14:00;98707.00;;;31.22;39.50
50368;BME280;36281;34.132;-118.018;2022-09-09T04:16:28;98704.63;;;31.17;39.17
50368;BME280;36281;34.132;-118.018;2022-09-09T04:18:56;98698.75;;;31.14;39.99
50368;BME280;36281;34.132;-118.018;2022-09-09T04:21:26;98692.41;;;31.07;40.12
50368;BME280;36281;34.132;-118.018;2022-09-09T04:23:55;98695.50;;;31.02;40.34
50368;BME280;36281;34.132;-118.018;2022-09-09T04:26:24;98689.97;;;30.95;40.55
50368;BME280;36281;34.132;-118.018;2022-09-09T04:28:52;98687.25;;;30.95;40.49
50368;BME280;36281;34.132;-118.018;2022-09-09T04:31:21;98688.06;;;30.99;39.25
50368;BME280;36281;34.132;-118.018;2022-09-09T04:33:51;98680.66;;;30.99;39.25
50368;BME280;36281;34.132;-118.018;2022-09-09T04:36:19;98681.00;;;30.94;39.03
50368;BME280;36281;34.132;-118.018;2022-09-09T04:38:47;98685.69;;;30.94;40.85
50368;BME280;36281;34.132;-118.018;2022-09-09T04:41:20;98684.88;;;30.93;41.02
50368;BME280;36281;34.132;-118.018;2022-09-09T04:43:48;98682.13;;;30.89;40.81
50368;BME280;36281;34.132;-118.018;2022-09-09T04:46:16;98682.13;;;30.89;40.43
50368;BME280;36281;34.132;-118.018;2022-09-09T04:48:45;98682.84;;;30.86;40.34
50368;BME280;36281;34.132;-118.018;2022-09-09T04:51:13;98681.63;;;30.80;39.84
50368;BME280;36281;34.132;-118.018;2022-09-09T04:53:41;98688.59;;;30.74;40.61
50368;BME280;36281;34.132;-118.018;2022-09-09T04:56:10;98685.34;;;30.65;40.33
50368;BME280;36281;34.132;-118.018;2022-09-09T04:58:40;98681.84;;;30.64;40.77
50368;BME280;36281;34.132;-118.018;2022-09-09T05:01:13;98683.72;;;30.60;40.40
50368;BME280;36281;34.132;-118.018;2022-09-09T05:03:42;98685.25;;;30.58;41.28
50368;BME280;36281;34.132;-118.018;2022-09-09T05:06:13;98676.66;;;30.56;41.15
50368;BME280;36281;34.132;-118.018;2022-09-09T05:08:42;98689.94;;;30.57;41.64
50368;BME280;36281;34.132;-118.018;2022-09-09T05:11:14;98687.53;;;30.52;41.82
50368;BME280;36281;34.132;-118.018;2022-09-09T05:13:45;98689.88;;;30.50;41.94
50368;BME280;36281;34.132;-118.018;2022-09-09T05:16:14;98692.22;;;30.52;41.77
50368;BME280;36281;34.132;-118.018;2022-09-09T05:18:42;98700.00;;;30.50;42.04
50368;BME280;36281;34.132;-118.018;2022-09-09T05:21:11;98691.00;;;30.46;42.14
50368;BME280;36281;34.132;-118.018;2022-09-09T05:23:39;98689.00;;;30.43;41.18
50368;BME280;36281;34.132;-118.018;2022-09-09T05:26:09;98691.38;;;30.44;41.65
50368;BME280;36281;34.132;-118.018;2022-09-09T05:28:43;98693.66;;;30.42;42.22
50368;BME280;36281;34.132;-118.018;2022-09-09T05:31:13;98688.22;;;30.42;42.53
50368;BME280;36281;34.132;-118.018;2022-09-09T05:33:42;98693.66;;;30.38;42.20
50368;BME280;36281;34.132;-118.018;2022-09-09T05:36:11;98690.47;;;30.36;42.84
50368;BME280;36281;34.132;-118.018;2022-09-09T05:38:44;98688.88;;;30.32;42.67
50368;BME280;36281;34.132;-118.018;2022-09-09T05:41:13;98690.44;;;30.33;43.06
50368;BME280;36281;34.132;-118.018;2022-09-09T05:43:43;98687.25;;;30.27;42.95
50368;BME280;36281;34.132;-118.018;2022-09-09T05:46:14;98694.66;;;30.27;43.41
50368;BME280;36281;34.132;-118.018;2022-09-09T05:48:43;98691.88;;;30.23;43.10
50368;BME280;36281;34.132;-118.018;2022-09-09T05:51:14;98689.47;;;30.18;43.17
50368;BME280;36281;34.132;-118.018;2022-09-09T05:53:46;98697.56;;;30.11;43.43
50368;BME280;36281;34.132;-118.018;2022-09-09T05:56:15;98693.16;;;30.03;43.63
50368;BME280;36281;34.132;-118.018;2022-09-09T05:58:43;98692.78;;;30.04;43.95
50368;BME280;36281;34.132;-118.018;2022-09-09T06:01:14;98696.66;;;30.03;44.23
50368;BME280;36281;34.132;-118.018;2022-09-09T06:03:43;98693.53;;;30.01;43.95
50368;BME280;36281;34.132;-118.018;2022-09-09T06:06:12;98702.44;;;29.98;44.07
50368;BME280;36281;34.132;-118.018;2022-09-09T06:08:41;98696.94;;;29.95;43.62
50368;BME280;36281;34.132;-118.018;2022-09-09T06:11:12;98694.53;;;29.90;43.85
50368;BME280;36281;34.132;-118.018;2022-09-09T06:13:41;98692.59;;;29.90;43.54
50368;BME280;36281;34.132;-118.018;2022-09-09T06:16:09;98698.00;;;29.86;44.16
50368;BME280;36281;34.132;-118.018;2022-09-09T06:18:40;98683.50;;;29.82;45.17
50368;BME280;36281;34.132;-118.018;2022-09-09T06:21:09;98686.25;;;29.82;45.23
50368;BME280;36281;34.132;-118.018;2022-09-09T06:23:39;98679.22;;;29.81;44.93
50368;BME280;36281;34.132;-118.018;2022-09-09T06:26:09;98680.38;;;29.80;44.75
50368;BME280;36281;34.132;-118.018;2022-09-09T06:28:38;98674.13;;;29.80;45.40
50368;BME280;36281;34.132;-118.018;2022-09-09T06:31:07;98685.00;;;29.76;45.03
50368;BME280;36281;34.132;-118.018;2022-09-09T06:33:36;98684.94;;;29.73;44.74
50368;BME280;36281;34.132;-118.018;2022-09-09T06:36:09;98683.44;;;29.75;44.92
50368;BME280;36281;34.132;-118.018;2022-09-09T06:38:38;98671.72;;;29.75;44.92
50368;BME280;36281;34.132;-118.018;2022-09-09T06:41:07;98675.63;;;29.74;45.89
50368;BME280;36281;34.132;-118.018;2022-09-09T06:43:35;98672.81;;;29.70;44.88
50368;BME280;36281;34.132;-118.018;2022-09-09T06:46:04;98666.47;;;29.63;44.68
50368;BME280;36281;34.132;-118.018;2022-09-09T06:48:33;98676.66;;;29.66;45.06
50368;BME280;36281;34.132;-118.018;2022-09-09T06:51:02;98673.88;;;29.62;45.40
50368;BME280;36281;34.132;-118.018;2022-09-09T06:53:32;98666.47;;;29.63;45.15
50368;BME280;36281;34.132;-118.018;2022-09-09T06:56:01;98666.13;;;29.64;45.12
50368;BME280;36281;34.132;-118.018;2022-09-09T06:58:29;98662.97;;;29.62;45.31
50368;BME280;36281;34.132;-118.018;2022-09-09T07:01:02;98657.88;;;29.60;45.41
50368;BME280;36281;34.132;-118.018;2022-09-09T07:03:31;98656.25;;;29.56;45.84
50368;BME280;36281;34.132;-118.018;2022-09-09T07:05:59;98650.41;;;29.57;46.21
50368;BME280;36281;34.132;-118.018;2022-09-09T07:08:28;98648.06;;;29.56;46.16
50368;BME280;36281;34.132;-118.018;2022-09-09T07:11:03;98639.00;;;29.52;46.23
50368;BME280;36281;34.132;-118.018;2022-09-09T07:13:37;98645.25;;;29.52;45.12
50368;BME280;36281;34.132;-118.018;2022-09-09T07:16:06;98642.03;;;29.47;45.38
50368;BME280;36281;34.132;-118.018;2022-09-09T07:18:35;98640.47;;;29.46;45.57
50368;BME280;36281;34.132;-118.018;2022-09-09T07:21:03;98639.63;;;29.42;45.87
50368;BME280;36281;34.132;-118.018;2022-09-09T07:23:31;98639.94;;;29.36;45.38
50368;BME280;36281;34.132;-118.018;2022-09-09T07:26:06;98643.47;;;29.37;45.74
50368;BME280;36281;34.132;-118.018;2022-09-09T07:28:35;98642.31;;;29.38;45.76
50368;BME280;36281;34.132;-118.018;2022-09-09T07:31:04;98636.44;;;29.36;45.82
50368;BME280;36281;34.132;-118.018;2022-09-09T07:33:33;98628.50;;;29.27;45.29
50368;BME280;36281;34.132;-118.018;2022-09-09T07:36:02;98640.97;;;29.28;46.04
50368;BME280;36281;34.132;-118.018;2022-09-09T07:38:31;98633.59;;;29.29;45.60
50368;BME280;36281;34.132;-118.018;2022-09-09T07:41:05;98626.56;;;29.28;46.06
50368;BME280;36281;34.132;-118.018;2022-09-09T07:43:33;98630.75;;;29.22;46.60
50368;BME280;36281;34.132;-118.018;2022-09-09T07:46:01;98623.38;;;29.22;46.89
50368;BME280;36281;34.132;-118.018;2022-09-09T07:48:30;98634.66;;;29.21;46.23
50368;BME280;36281;34.132;-118.018;2022-09-09T07:51:05;98626.41;;;29.17;46.63
50368;BME280;36281;34.132;-118.018;2022-09-09T07:53:33;98622.81;;;29.13;46.52
50368;BME280;36281;34.132;-118.018;2022-09-09T07:56:09;98621.25;;;29.12;46.36
50368;BME280;36281;34.132;-118.018;2022-09-09T07:58:37;98622.78;;;29.09;46.92
50368;BME280;36281;34.132;-118.018;2022-09-09T08:01:07;98623.19;;;29.12;47.09
50368;BME280;36281;34.132;-118.018;2022-09-09T08:03:36;98613.81;;;29.09;46.91
50368;BME280;36281;34.132;-118.018;2022-09-09T08:06:06;98616.13;;;29.07;46.01
50368;BME280;36281;34.132;-118.018;2022-09-09T08:08:35;98610.66;;;29.07;46.02
50368;BME280;36281;34.132;-118.018;2022-09-09T08:11:05;98612.19;;;29.04;46.95
50368;BME280;36281;34.132;-118.018;2022-09-09T08:13:36;98612.19;;;29.04;46.57
50368;BME280;36281;34.132;-118.018;2022-09-09T08:16:06;98608.25;;;29.02;46.52
50368;BME280;36281;34.132;-118.018;2022-09-09T08:18:34;98592.88;;;28.94;46.82
50368;BME280;36281;34.132;-118.018;2022-09-09T08:21:07;98590.53;;;28.92;47.11
50368;BME280;36281;34.132;-118.018;2022-09-09T08:23:36;98601.38;;;28.89;47.45
50368;BME280;36281;34.132;-118.018;2022-09-09T08:26:08;98590.91;;;28.91;47.54
50368;BME280;36281;34.132;-118.018;2022-09-09T08:28:39;98594.34;;;28.88;47.68
50368;BME280;36281;34.132;-118.018;2022-09-09T08:31:09;98591.94;;;28.82;48.47
50368;BME280;36281;34.132;-118.018;2022-09-09T08:33:37;98592.25;;;28.77;47.57
50368;BME280;36281;34.132;-118.018;2022-09-09T08:36:06;98596.53;;;28.78;47.91
50368;BME280;36281;34.132;-118.018;2022-09-09T08:38:36;98594.56;;;28.75;47.59
50368;BME280;36281;34.132;-118.018;2022-09-09T08:41:09;98583.59;;;28.72;48.54
50368;BME280;36281;34.132;-118.018;2022-09-09T08:43:44;98578.81;;;28.65;48.30
50368;BME280;36281;34.132;-118.018;2022-09-09T08:46:16;98583.47;;;28.65;48.60
50368;BME280;36281;34.132;-118.018;2022-09-09T08:48:51;98585.75;;;28.63;49.17
50368;BME280;36281;34.132;-118.018;2022-09-09T08:51:24;98585.22;;;28.53;49.10
50368;BME280;36281;34.132;-118.018;2022-09-09T08:53:53;98574.28;;;28.50;47.87
50368;BME280;36281;34.132;-118.018;2022-09-09T08:56:25;98575.41;;;28.49;48.02
50368;BME280;36281;34.132;-118.018;2022-09-09T08:58:56;98582.06;;;28.51;47.59
50368;BME280;36281;34.132;-118.018;2022-09-09T09:01:34;98579.34;;;28.51;47.96
50368;BME280;36281;34.132;-118.018;2022-09-09T09:04:06;98576.19;;;28.49;47.91
50368;BME280;36281;34.132;-118.018;2022-09-09T09:06:43;98572.97;;;28.44;48.54
50368;BME280;36281;34.132;-118.018;2022-09-09T09:09:18;98573.72;;;28.41;49.22
50368;BME280;36281;34.132;-118.018;2022-09-09T09:11:50;98572.84;;;28.37;49.30
50368;BME280;36281;34.132;-118.018;2022-09-09T09:14:21;98570.50;;;28.35;49.74
50368;BME280;36281;34.132;-118.018;2022-09-09T09:16:58;98574.13;;;28.23;49.72
50368;BME280;36281;34.132;-118.018;2022-09-09T09:19:27;98576.44;;;28.21;49.89
50368;BME280;36281;34.132;-118.018;2022-09-09T09:21:57;98576.34;;;28.18;49.73
50368;BME280;36281;34.132;-118.018;2022-09-09T09:24:30;98583.31;;;28.15;48.49
50368;BME280;36281;34.132;-118.018;2022-09-09T09:27:07;98580.94;;;28.14;48.88
50368;BME280;36281;34.132;-118.018;2022-09-09T09:29:41;98579.00;;;28.14;49.17
50368;BME280;36281;34.132;-118.018;2022-09-09T09:32:32;98579.59;;;28.04;49.74
50368;BME280;36281;34.132;-118.018;2022-09-09T09:35:02;98572.94;;;28.01;50.06
50368;BME280;36281;34.132;-118.018;2022-09-09T09:37:33;98588.53;;;28.04;50.17
50368;BME280;36281;34.132;-118.018;2022-09-09T09:40:25;98575.28;;;28.03;49.54
50368;BME280;36281;34.132;-118.018;2022-09-09T09:42:53;98577.59;;;28.01;49.76
50368;BME280;36281;34.132;-118.018;2022-09-09T09:45:27;98573.72;;;28.02;49.96
50368;BME280;36281;34.132;-118.018;2022-09-09T09:48:00;98583.75;;;27.98;48.89
50368;BME280;36281;34.132;-118.018;2022-09-09T09:50:33;98579.75;;;27.92;48.93
50368;BME280;36281;34.132;-118.018;2022-09-09T09:53:02;98576.16;;;27.88;48.51
50368;BME280;36281;34.132;-118.018;2022-09-09T09:55:32;98585.88;;;27.89;49.42
50368;BME280;36281;34.132;-118.018;2022-09-09T09:58:02;98586.25;;;27.87;49.40
50368;BME280;36281;34.132;-118.018;2022-09-09T10:00:37;98591.63;;;27.83;50.08
50368;BME280;36281;34.132;-118.018;2022-09-09T10:03:19;98595.78;;;27.77;50.57
50368;BME280;36281;34.132;-118.018;2022-09-09T10:05:49;98592.97;;;27.74;51.02
50368;BME280;36281;34.132;-118.018;2022-09-09T10:08:17;98594.13;;;27.73;51.39
50368;BME280;36281;34.132;-118.018;2022-09-09T10:10:49;98604.03;;;27.65;51.14
50368;BME280;36281;34.132;-118.018;2022-09-09T10:13:20;98599.38;;;27.66;50.94
50368;BME280;36281;34.132;-118.018;2022-09-09T10:15:56;98597.00;;;27.64;50.19
50368;BME280;36281;34.132;-118.018;2022-09-09T10:18:39;98593.00;;;27.58;50.34
50368;BME280;36281;34.132;-118.018;2022-09-09T10:21:12;98590.63;;;27.56;50.08
50368;BME280;36281;34.132;-118.018;2022-09-09T10:23:47;98597.94;;;27.52;50.18
50368;BME280;36281;34.132;-118.018;2022-09-09T10:26:25;98592.06;;;27.50;49.67
50368;BME280;36281;34.132;-118.018;2022-09-09T10:29:04;98589.78;;;27.52;49.13
50368;BME280;36281;34.132;-118.018;2022-09-09T10:31:40;98587.06;;;27.52;49.14
50368;BME280;36281;34.132;-118.018;2022-09-09T10:34:14;98588.97;;;27.52;48.63
50368;BME280;36281;34.132;-118.018;2022-09-09T10:36:46;98583.91;;;27.50;48.24
50368;BME280;36281;34.132;-118.018;2022-09-09T10:39:18;98588.28;;;27.55;48.89
50368;BME280;36281;34.132;-118.018;2022-09-09T10:41:56;98585.97;;;27.57;48.09
50368;BME280;36281;34.132;-118.018;2022-09-09T10:44:30;98574.41;;;27.60;48.51
50368;BME280;36281;34.132;-118.018;2022-09-09T10:47:12;98569.38;;;27.62;47.80
50368;BME280;36281;34.132;-118.018;2022-09-09T10:49:52;98566.66;;;27.62;47.80
50368;BME280;36281;34.132;-118.018;2022-09-09T10:52:25;98562.44;;;27.65;47.25
50368;BME280;36281;34.132;-118.018;2022-09-09T10:54:57;98557.06;;;27.68;47.11
50368;BME280;36281;34.132;-118.018;2022-09-09T10:57:29;98549.69;;;27.69;46.29
50368;BME280;36281;34.132;-118.018;2022-09-09T11:00:01;98549.44;;;27.74;46.16
50368;BME280;36281;34.132;-118.018;2022-09-09T11:02:34;98540.94;;;27.75;45.37
50368;BME280;36281;34.132;-118.018;2022-09-09T11:05:03;98546.09;;;27.80;45.44
50368;BME280;36281;34.132;-118.018;2022-09-09T11:07:34;98539.94;;;27.83;45.53
50368;BME280;36281;34.132;-118.018;2022-09-09T11:10:11;98547.38;;;27.87;45.09
50368;BME280;36281;34.132;-118.018;2022-09-09T11:12:44;98534.19;;;27.89;44.76
50368;BME280;36281;34.132;-118.018;2022-09-09T11:15:17;98536.22;;;27.92;44.98
50368;BME280;36281;34.132;-118.018;2022-09-09T11:17:49;98539.34;;;27.94;45.19
50368;BME280;36281;34.132;-118.018;2022-09-09T11:20:18;98533.91;;;27.94;44.65
50368;BME280;36281;34.132;-118.018;2022-09-09T11:22:47;98535.13;;;27.96;42.69
50368;BME280;36281;34.132;-118.018;2022-09-09T11:25:19;98540.66;;;28.00;42.98
50368;BME280;36281;34.132;-118.018;2022-09-09T11:27:53;98544.94;;;28.01;43.24
50368;BME280;36281;34.132;-118.018;2022-09-09T11:30:26;98538.75;;;28.04;43.08
50368;BME280;36281;34.132;-118.018;2022-09-09T11:33:27;98534.84;;;28.01;43.21
50368;BME280;36281;34.132;-118.018;2022-09-09T11:36:13;98546.50;;;28.02;42.61
50368;BME280;36281;34.132;-118.018;2022-09-09T11:38:47;98544.16;;;28.00;42.93
50368;BME280;36281;34.132;-118.018;2022-09-09T11:41:19;98544.50;;;27.99;42.80
50368;BME280;36281;34.132;-118.018;2022-09-09T11:43:52;98542.94;;;27.98;42.08
50368;BME280;36281;34.132;-118.018;2022-09-09T11:46:21;98541.72;;;27.95;42.11
50368;BME280;36281;34.132;-118.018;2022-09-09T11:48:59;98543.66;;;27.95;41.73
50368;BME280;36281;34.132;-118.018;2022-09-09T11:51:28;98544.00;;;27.93;42.16
50368;BME280;36281;34.132;-118.018;2022-09-09T11:53:58;98549.81;;;27.92;42.73
50368;BME280;36281;34.132;-118.018;2022-09-09T11:56:29;98546.66;;;27.90;44.22
50368;BME280;36281;34.132;-118.018;2022-09-09T11:58:59;98547.78;;;27.89;43.33
50368;BME280;36281;34.132;-118.018;2022-09-09T12:01:39;98547.38;;;27.87;43.09
50368;BME280;36281;34.132;-118.018;2022-09-09T12:04:14;98552.81;;;27.87;42.71
50368;BME280;36281;34.132;-118.018;2022-09-09T12:06:49;98558.63;;;27.85;43.23
50368;BME280;36281;34.132;-118.018;2022-09-09T12:09:19;98562.47;;;27.84;43.03
50368;BME280;36281;34.132;-118.018;2022-09-09T12:11:49;98569.06;;;27.83;42.80
50368;BME280;36281;34.132;-118.018;2022-09-09T12:14:21;98570.22;;;27.82;42.47
50368;BME280;36281;34.132;-118.018;2022-09-09T12:16:50;98568.19;;;27.79;42.67
50368;BME280;36281;34.132;-118.018;2022-09-09T12:19:20;98574.88;;;27.81;43.09
50368;BME280;36281;34.132;-118.018;2022-09-09T12:21:54;98569.00;;;27.79;42.68
50368;BME280;36281;34.132;-118.018;2022-09-09T12:24:28;98570.13;;;27.78;42.56
50368;BME280;36281;34.132;-118.018;2022-09-09T12:26:59;98574.88;;;27.81;41.83
50368;BME280;36281;34.132;-118.018;2022-09-09T12:29:32;98584.31;;;27.88;42.46
50368;BME280;36281;34.132;-118.018;2022-09-09T12:32:06;98588.31;;;27.94;42.11
50368;BME280;36281;34.132;-118.018;2022-09-09T12:34:38;98590.75;;;27.99;42.26
50368;BME280;36281;34.132;-118.018;2022-09-09T12:37:13;98590.91;;;28.06;42.06
50368;BME280;36281;34.132;-118.018;2022-09-09T12:39:43;98589.06;;;28.10;42.06
50368;BME280;36281;34.132;-118.018;2022-09-09T12:42:17;98586.47;;;28.17;41.78
50368;BME280;36281;34.132;-118.018;2022-09-09T12:44:56;98597.91;;;28.26;42.40
50368;BME280;36281;34.132;-118.018;2022-09-09T12:47:26;98599.97;;;28.33;42.52
50368;BME280;36281;34.132;-118.018;2022-09-09T12:49:59;98603.22;;;28.39;42.59
50368;BME280;36281;34.132;-118.018;2022-09-09T12:52:28;98608.03;;;28.45;42.74
50368;BME280;36281;34.132;-118.018;2022-09-09T12:55:01;98604.66;;;28.52;42.93